Time;durP1;ratioP1;P1;durP2;ratioP2;P2;SDS_P1;SDS_P2;PMS_P1;PMS_P2;Temp;Humidity;BMP_temperature;BMP_pressure;BME280_temperature;BME280_humidity;BME280_pressure;Samples;Min_cycle;Max_cycle;Signal;HPM_P1;HPM_P2
2023/02/07 00:00:13;;;;;;;35.25;23.60;;;;;;;;;;5050667;28;20021;-64
2023/02/07 00:02:46;;;;;;;35.67;23.08;;;;;;;;;;5051176;28;20071;-63
2023/02/07 00:05:12;;;;;;;35.47;22.98;;;;;;;;;;5032827;28;20101;-64
2023/02/07 00:07:39;;;;;;;40.47;24.35;;;;;;;;;;5040235;28;20032;-64
2023/02/07 00:10:06;;;;;;;39.92;24.55;;;;;;;;;;5035256;28;20658;-64
2023/02/07 00:12:32;;;;;;;36.15;24.23;;;;;;;;;;5033255;28;20616;-62
2023/02/07 00:14:58;;;;;;;39.80;23.13;;;;;;;;;;5034175;28;20069;-63
2023/02/07 00:17:24;;;;;;;42.00;24.83;;;;;;;;;;5012940;28;20013;-64
2023/02/07 00:19:51;;;;;;;39.65;25.42;;;;;;;;;;5012575;28;20127;-64
2023/02/07 00:22:16;;;;;;;35.15;23.17;;;;;;;;;;5029099;28;20686;-64
2023/02/07 00:24:42;;;;;;;35.33;25.10;;;;;;;;;;5059010;22;20033;-64
2023/02/07 00:27:08;;;;;;;32.90;23.95;;;;;;;;;;5014703;28;20072;-64
2023/02/07 00:29:35;;;;;;;38.15;23.70;;;;;;;;;;5015654;28;20021;-64
2023/02/07 00:32:01;;;;;;;40.55;25.35;;;;;;;;;;5033293;28;20030;-62
2023/02/07 00:34:27;;;;;;;29.73;22.80;;;;;;;;;;5014640;28;20022;-62
2023/02/07 00:36:53;;;;;;;36.15;24.50;;;;;;;;;;5015588;28;20067;-62
2023/02/07 00:39:19;;;;;;;43.58;24.10;;;;;;;;;;5032594;28;20025;-64
2023/02/07 00:41:45;;;;;;;35.83;23.65;;;;;;;;;;5015438;28;20060;-63
2023/02/07 00:44:11;;;;;;;34.65;22.65;;;;;;;;;;5033357;28;20032;-64
2023/02/07 00:46:38;;;;;;;34.67;22.45;;;;;;;;;;5016263;28;20499;-63
2023/02/07 00:49:04;;;;;;;32.25;23.52;;;;;;;;;;5034034;28;20029;-63
2023/02/07 00:51:31;;;;;;;34.67;23.50;;;;;;;;;;5033682;28;20025;-64
2023/02/07 00:53:57;;;;;;;36.13;23.80;;;;;;;;;;5014624;28;20030;-62
2023/02/07 00:56:24;;;;;;;35.70;22.65;;;;;;;;;;5016203;28;20037;-65
2023/02/07 00:58:50;;;;;;;37.17;23.88;;;;;;;;;;5034034;28;20056;-63
2023/02/07 01:01:17;;;;;;;36.47;23.70;;;;;;;;;;5016101;28;20021;-62
2023/02/07 01:03:43;;;;;;;32.15;22.95;;;;;;;;;;5032218;28;20030;-63
2023/02/07 01:06:09;;;;;;;34.42;23.02;;;;;;;;;;5033038;28;20091;-63
2023/02/07 01:08:35;;;;;;;32.72;22.60;;;;;;;;;;5016141;28;20072;-63
2023/02/07 01:11:03;;;;;;;31.98;23.63;;;;;;;;;;5032449;28;20056;-64
2023/02/07 01:13:29;;;;;;;30.65;21.65;;;;;;;;;;5014961;28;20014;-64
2023/02/07 01:15:55;;;;;;;30.05;21.60;;;;;;;;;;5033586;28;20371;-63
2023/02/07 01:18:21;;;;;;;35.33;22.27;;;;;;;;;;5014555;28;20013;-64
2023/02/07 01:20:47;;;;;;;28.77;22.48;;;;;;;;;;5015551;28;20057;-62
2023/02/07 01:23:14;;;;;;;31.92;22.77;;;;;;;;;;5015067;28;20087;-58
2023/02/07 01:25:40;;;;;;;30.55;21.92;;;;;;;;;;5014087;28;20037;-62
2023/02/07 01:28:07;;;;;;;31.42;22.38;;;;;;;;;;5015022;28;20044;-63
2023/02/07 01:30:33;;;;;;;33.63;23.30;;;;;;;;;;5015711;28;20166;-63
2023/02/07 01:32:59;;;;;;;36.17;22.45;;;;;;;;;;5015255;28;20026;-62
2023/02/07 01:35:25;;;;;;;35.97;22.90;;;;;;;;;;5012802;28;20485;-62
2023/02/07 01:37:51;;;;;;;33.08;22.10;;;;;;;;;;5014893;28;20030;-63
2023/02/07 01:40:20;;;;;;;32.13;22.48;;;;;;;;;;5032960;28;20100;-62
2023/02/07 01:42:46;;;;;;;30.25;23.75;;;;;;;;;;5015299;28;20025;-63
2023/02/07 01:45:29;;;;;;;38.55;24.40;;;;;;;;;;5031588;28;20022;-64
2023/02/07 01:47:57;;;;;;;33.08;22.98;;;;;;;;;;5032153;28;20025;-63
2023/02/07 01:50:23;;;;;;;32.90;22.67;;;;;;;;;;5032813;28;20032;-62
2023/02/07 01:52:49;;;;;;;272.52;142.38;;;;;;;;;;5032663;28;20057;-61
2023/02/07 01:55:18;;;;;;;166.68;93.28;;;;;;;;;;5031036;28;20032;-63
2023/02/07 01:57:44;;;;;;;66.43;46.13;;;;;;;;;;5025732;28;20024;-64
2023/02/07 02:00:13;;;;;;;35.72;25.13;;;;;;;;;;5026447;28;20029;-64
2023/02/07 02:02:39;;;;;;;34.05;22.55;;;;;;;;;;5023896;28;20508;-64
2023/02/07 02:05:06;;;;;;;37.47;22.60;;;;;;;;;;5014035;28;20481;-64
2023/02/07 02:07:34;;;;;;;31.77;21.73;;;;;;;;;;5006831;28;20448;-64
2023/02/07 02:10:00;;;;;;;30.73;22.92;;;;;;;;;;5014749;28;20508;-64
2023/02/07 02:12:39;;;;;;;33.65;23.58;;;;;;;;;;5013901;28;20041;-63
2023/02/07 02:15:04;;;;;;;;;;;;;;;;;;5009969;28;20282;-63
2023/02/07 02:17:53;;;;;;;35.45;22.95;;;;;;;;;;5026984;28;19909;-64
2023/02/07 02:20:38;;;;;;;32.10;23.52;;;;;;;;;;4999989;28;20024;-64
2023/02/07 02:23:04;;;;;;;36.80;23.25;;;;;;;;;;5011563;28;20087;-63
2023/02/07 02:25:36;;;;;;;31.27;22.25;;;;;;;;;;5013820;28;20041;-64
2023/02/07 02:28:08;;;;;;;32.97;22.88;;;;;;;;;;4994758;28;20084;-63
2023/02/07 02:30:45;;;;;;;33.20;22.08;;;;;;;;;;4994987;28;20041;-64
2023/02/07 02:33:28;;;;;;;29.65;21.60;;;;;;;;;;4994297;28;20117;-64
2023/02/07 02:36:00;;;;;;;31.70;22.85;;;;;;;;;;4994883;28;20029;-64
2023/02/07 02:38:26;;;;;;;35.38;24.08;;;;;;;;;;5022020;28;20053;-64
2023/02/07 02:40:56;;;;;;;34.42;24.02;;;;;;;;;;5031158;28;20028;-64
2023/02/07 02:43:35;;;;;;;33.42;22.85;;;;;;;;;;5031401;28;20036;-64
2023/02/07 02:46:06;;;;;;;38.60;24.48;;;;;;;;;;5014125;28;20120;-64
2023/02/07 02:48:33;;;;;;;28.23;21.67;;;;;;;;;;5014186;28;20090;-63
2023/02/07 02:50:59;;;;;;;35.10;22.70;;;;;;;;;;5013449;28;20029;-64
2023/02/07 02:53:25;;;;;;;37.92;23.92;;;;;;;;;;5011967;28;20401;-64
2023/02/07 02:55:54;;;;;;;35.28;22.67;;;;;;;;;;5013802;28;20496;-63
2023/02/07 02:58:23;;;;;;;32.83;24.10;;;;;;;;;;5031486;28;20029;-63
2023/02/07 03:01:00;;;;;;;38.10;23.73;;;;;;;;;;5012919;28;20021;-64
2023/02/07 03:03:35;;;;;;;37.25;24.33;;;;;;;;;;5013481;28;20033;-63
2023/02/07 03:06:04;;;;;;;35.47;24.00;;;;;;;;;;5031112;28;20511;-64
2023/02/07 03:08:30;;;;;;;33.53;23.17;;;;;;;;;;5013894;28;20026;-62
2023/02/07 03:10:56;;;;;;;33.30;24.02;;;;;;;;;;5031501;28;20044;-64
2023/02/07 03:13:34;;;;;;;32.67;23.70;;;;;;;;;;5030736;28;20033;-62
2023/02/07 03:16:13;;;;;;;38.40;23.75;;;;;;;;;;5013832;28;20040;-62
2023/02/07 03:18:42;;;;;;;36.70;22.70;;;;;;;;;;5013535;28;20167;-59
2023/02/07 03:21:15;;;;;;;35.33;23.33;;;;;;;;;;5010645;28;20053;-62
2023/02/07 03:23:42;;;;;;;34.20;23.23;;;;;;;;;;4993372;28;20025;-64
2023/02/07 03:26:08;;;;;;;32.75;22.48;;;;;;;;;;4993899;28;20042;-62
2023/02/07 03:28:35;;;;;;;34.03;21.80;;;;;;;;;;4993943;28;20030;-64
2023/02/07 03:31:02;;;;;;;33.67;22.77;;;;;;;;;;4993973;28;20037;-62
2023/02/07 03:33:28;;;;;;;37.30;24.48;;;;;;;;;;5007907;28;20034;-64
2023/02/07 03:36:07;;;;;;;38.63;24.90;;;;;;;;;;5016685;28;20466;-64
2023/02/07 03:38:33;;;;;;;32.90;23.48;;;;;;;;;;5035398;28;20437;-59
2023/02/07 03:41:01;;;;;;;33.78;24.88;;;;;;;;;;5034077;28;20046;-60
2023/02/07 03:43:28;;;;;;;32.70;22.58;;;;;;;;;;5016714;28;20032;-59
2023/02/07 03:45:55;;;;;;;32.60;22.85;;;;;;;;;;5018427;28;20473;-63
2023/02/07 03:48:21;;;;;;;34.55;21.98;;;;;;;;;;5016533;28;20065;-63
2023/02/07 03:50:49;;;;;;;32.75;23.73;;;;;;;;;;5035057;28;20022;-61
2023/02/07 03:53:15;;;;;;;32.75;22.48;;;;;;;;;;5016812;28;20084;-64
2023/02/07 03:55:41;;;;;;;32.05;23.52;;;;;;;;;;5035112;28;20386;-63
2023/02/07 03:58:08;;;;;;;33.33;23.55;;;;;;;;;;5016812;28;20026;-64
2023/02/07 04:00:34;;;;;;;34.78;23.88;;;;;;;;;;5016782;28;20520;-64
2023/02/07 04:03:00;;;;;;;32.92;23.75;;;;;;;;;;5034616;28;20041;-63
2023/02/07 04:05:26;;;;;;;34.17;24.27;;;;;;;;;;5016815;28;20035;-64
2023/02/07 04:07:52;;;;;;;29.65;22.30;;;;;;;;;;5034714;28;20025;-60
2023/02/07 04:10:18;;;;;;;35.83;24.73;;;;;;;;;;5016959;28;20040;-61
2023/02/07 04:12:45;;;;;;;32.60;23.23;;;;;;;;;;5016069;28;20078;-64
2023/02/07 04:15:11;;;;;;;30.92;22.77;;;;;;;;;;5016074;28;20032;-63
2023/02/07 04:17:37;;;;;;;33.10;22.77;;;;;;;;;;5016702;28;20032;-62
2023/02/07 04:20:04;;;;;;;36.13;24.05;;;;;;;;;;5008304;28;20050;-63
2023/02/07 04:22:31;;;;;;;37.55;23.33;;;;;;;;;;4996982;28;20091;-63
2023/02/07 04:24:57;;;;;;;32.60;23.33;;;;;;;;;;5011768;28;20030;-64
2023/02/07 04:27:23;;;;;;;34.28;25.00;;;;;;;;;;5016642;28;20028;-62
2023/02/07 04:29:49;;;;;;;36.45;23.75;;;;;;;;;;5016609;28;20033;-63
2023/02/07 04:32:15;;;;;;;32.55;22.00;;;;;;;;;;5033961;28;20101;-63
2023/02/07 04:34:41;;;;;;;36.83;22.52;;;;;;;;;;5015413;28;20029;-63
2023/02/07 04:37:07;;;;;;;31.92;22.02;;;;;;;;;;5016238;28;20025;-63
2023/02/07 04:39:33;;;;;;;37.05;24.23;;;;;;;;;;5017159;28;20025;-63
2023/02/07 04:41:59;;;;;;;31.55;22.63;;;;;;;;;;5016240;28;20121;-63
2023/02/07 04:44:25;;;;;;;34.97;23.45;;;;;;;;;;5014873;28;20508;-63
2023/02/07 04:46:51;;;;;;;31.90;22.92;;;;;;;;;;5016209;28;20049;-59
2023/02/07 04:49:17;;;;;;;33.80;23.83;;;;;;;;;;5015468;28;20029;-60
2023/02/07 04:51:43;;;;;;;32.28;22.60;;;;;;;;;;5016025;28;20021;-63
2023/02/07 04:54:09;;;;;;;34.78;24.02;;;;;;;;;;5015484;28;20054;-63
2023/02/07 04:56:35;;;;;;;31.08;23.10;;;;;;;;;;5034267;28;20045;-62
2023/02/07 04:59:01;;;;;;;33.67;24.02;;;;;;;;;;5034213;28;20028;-61
2023/02/07 05:01:27;;;;;;;32.10;22.23;;;;;;;;;;5015869;28;20029;-64
2023/02/07 05:03:53;;;;;;;33.50;23.42;;;;;;;;;;5015085;28;20509;-62
2023/02/07 05:06:19;;;;;;;36.08;22.88;;;;;;;;;;5016418;28;20080;-61
2023/02/07 05:08:45;;;;;;;32.33;23.88;;;;;;;;;;5016977;28;20102;-62
2023/02/07 05:11:12;;;;;;;33.47;23.60;;;;;;;;;;5016716;28;20033;-63
2023/02/07 05:13:38;;;;;;;36.13;23.80;;;;;;;;;;5033253;28;20033;-63
2023/02/07 05:16:05;;;;;;;31.42;23.70;;;;;;;;;;5033364;28;20037;-61
2023/02/07 05:18:31;;;;;;;31.13;24.20;;;;;;;;;;5033964;28;20140;-63
2023/02/07 05:20:57;;;;;;;34.03;24.10;;;;;;;;;;5033815;28;20112;-61
2023/02/07 05:23:24;;;;;;;39.95;23.88;;;;;;;;;;5015392;28;20476;-62
2023/02/07 05:25:50;;;;;;;34.97;24.33;;;;;;;;;;5014731;28;20144;-60
2023/02/07 05:28:16;;;;;;;31.85;22.35;;;;;;;;;;5015438;28;20462;-63
2023/02/07 05:30:45;;;;;;;33.72;24.35;;;;;;;;;;5015606;28;20398;-62
2023/02/07 05:33:11;;;;;;;35.42;24.48;;;;;;;;;;5015006;28;20025;-63
2023/02/07 05:35:38;;;;;;;36.78;25.55;;;;;;;;;;5014954;28;20018;-63
2023/02/07 05:38:06;;;;;;;32.10;24.08;;;;;;;;;;5033931;28;20128;-61
2023/02/07 05:40:34;;;;;;;34.97;24.20;;;;;;;;;;5016114;28;20022;-61
2023/02/07 05:43:00;;;;;;;39.72;22.35;;;;;;;;;;5015021;28;20117;-63
2023/02/07 05:45:26;;;;;;;31.98;22.27;;;;;;;;;;5032519;28;20029;-63
2023/02/07 05:47:52;;;;;;;42.63;23.83;;;;;;;;;;5015331;28;20039;-61
2023/02/07 05:50:18;;;;;;;34.33;23.73;;;;;;;;;;5032802;28;20037;-58
2023/02/07 05:52:44;;;;;;;38.00;24.95;;;;;;;;;;5015629;28;20452;-63
2023/02/07 05:55:11;;;;;;;34.92;23.83;;;;;;;;;;5014871;28;20028;-61
2023/02/07 05:57:38;;;;;;;34.85;24.83;;;;;;;;;;5014195;28;20026;-63
2023/02/07 06:00:05;;;;;;;32.33;23.88;;;;;;;;;;5015359;28;20017;-63
2023/02/07 06:02:31;;;;;;;32.47;24.15;;;;;;;;;;5014330;28;20037;-63
2023/02/07 06:04:57;;;;;;;35.67;23.98;;;;;;;;;;5003185;28;20394;-63
2023/02/07 06:07:23;;;;;;;31.10;22.90;;;;;;;;;;4998021;28;20433;-62
2023/02/07 06:09:49;;;;;;;33.05;22.65;;;;;;;;;;5014982;28;20393;-57
2023/02/07 06:12:15;;;;;;;32.00;22.90;;;;;;;;;;5027599;28;20041;-62
2023/02/07 06:14:41;;;;;;;34.00;24.55;;;;;;;;;;5002804;28;20025;-63
2023/02/07 06:17:07;;;;;;;37.50;24.27;;;;;;;;;;5013564;28;20033;-63
2023/02/07 06:19:33;;;;;;;35.63;23.23;;;;;;;;;;5032404;28;20045;-62
2023/02/07 06:21:59;;;;;;;34.42;23.35;;;;;;;;;;5014134;28;20029;-62
2023/02/07 06:24:25;;;;;;;33.38;23.27;;;;;;;;;;5012769;28;20024;-60
2023/02/07 06:26:51;;;;;;;38.25;25.13;;;;;;;;;;5057433;23;20143;-65
2023/02/07 06:29:17;;;;;;;33.63;23.63;;;;;;;;;;5052147;28;20107;-65
2023/02/07 06:31:43;;;;;;;38.03;24.85;;;;;;;;;;5051654;28;20449;-65
2023/02/07 06:34:09;;;;;;;35.35;24.70;;;;;;;;;;5051371;28;20432;-65
2023/02/07 06:36:35;;;;;;;33.50;23.77;;;;;;;;;;5051946;28;20024;-66
2023/02/07 06:39:02;;;;;;;33.92;24.00;;;;;;;;;;5036268;28;20093;-66
2023/02/07 06:41:28;;;;;;;33.78;23.60;;;;;;;;;;5031559;28;20028;-66
2023/02/07 06:43:54;;;;;;;33.70;24.05;;;;;;;;;;5031248;28;20029;-66
2023/02/07 06:46:20;;;;;;;32.70;24.50;;;;;;;;;;5050208;28;20028;-65
2023/02/07 06:48:46;;;;;;;30.95;23.65;;;;;;;;;;5050295;28;20033;-64
2023/02/07 06:51:12;;;;;;;33.78;25.48;;;;;;;;;;5044977;28;20119;-66
2023/02/07 06:53:38;;;;;;;36.15;25.33;;;;;;;;;;5050856;28;20063;-64
2023/02/07 06:56:04;;;;;;;34.65;24.70;;;;;;;;;;5051913;28;20025;-65
2023/02/07 06:58:30;;;;;;;36.17;24.83;;;;;;;;;;5069515;28;20389;-65
2023/02/07 07:00:56;;;;;;;37.78;27.52;;;;;;;;;;5061457;28;20017;-66
2023/02/07 07:03:25;;;;;;;34.08;24.73;;;;;;;;;;5048424;28;20039;-65
2023/02/07 07:05:52;;;;;;;32.33;23.90;;;;;;;;;;5051134;28;20507;-65
2023/02/07 07:08:18;;;;;;;42.28;25.83;;;;;;;;;;5051658;28;20094;-66
2023/02/07 07:10:44;;;;;;;34.63;26.00;;;;;;;;;;5048415;28;20042;-65
2023/02/07 07:13:10;;;;;;;34.55;25.75;;;;;;;;;;5029852;28;20045;-65
2023/02/07 07:15:37;;;;;;;36.15;25.02;;;;;;;;;;5049500;28;20025;-71
2023/02/07 07:18:03;;;;;;;32.97;25.63;;;;;;;;;;5031469;28;20021;-64
2023/02/07 07:20:29;;;;;;;34.50;25.45;;;;;;;;;;5031285;28;20138;-65
2023/02/07 07:22:55;;;;;;;35.08;25.48;;;;;;;;;;5032273;28;20052;-66
2023/02/07 07:25:21;;;;;;;37.60;26.77;;;;;;;;;;5048439;28;20033;-65
2023/02/07 07:27:47;;;;;;;36.20;26.42;;;;;;;;;;5049417;28;20409;-62
2023/02/07 07:30:13;;;;;;;37.25;24.38;;;;;;;;;;5049800;28;20473;-65
2023/02/07 07:32:39;;;;;;;32.38;24.42;;;;;;;;;;5031761;28;20588;-66
2023/02/07 07:35:06;;;;;;;31.95;24.77;;;;;;;;;;5031311;28;20021;-65
2023/02/07 07:37:32;;;;;;;35.33;25.55;;;;;;;;;;5049818;28;20033;-64
2023/02/07 07:39:58;;;;;;;38.15;26.80;;;;;;;;;;5069775;28;20385;-66
2023/02/07 07:42:24;;;;;;;35.08;24.67;;;;;;;;;;5068456;28;20479;-66
2023/02/07 07:44:50;;;;;;;34.58;24.92;;;;;;;;;;5070849;28;20032;-63
2023/02/07 07:47:17;;;;;;;38.38;26.67;;;;;;;;;;5066163;28;20144;-66
2023/02/07 07:49:43;;;;;;;32.95;25.17;;;;;;;;;;5049713;28;20446;-66
2023/02/07 07:52:09;;;;;;;34.55;25.27;;;;;;;;;;5069316;28;20032;-64
2023/02/07 07:54:35;;;;;;;37.08;26.58;;;;;;;;;;5050237;28;20027;-65
2023/02/07 07:57:02;;;;;;;36.13;25.95;;;;;;;;;;5043932;28;20112;-66
2023/02/07 07:59:28;;;;;;;35.47;25.08;;;;;;;;;;5066750;28;20449;-67
2023/02/07 08:01:54;;;;;;;38.67;24.70;;;;;;;;;;5068256;28;20029;-66
2023/02/07 08:04:20;;;;;;;34.22;25.30;;;;;;;;;;5067498;28;20025;-66
2023/02/07 08:06:46;;;;;;;34.88;24.50;;;;;;;;;;5032715;28;20123;-65
2023/02/07 08:09:12;;;;;;;35.35;25.73;;;;;;;;;;5068225;28;20055;-65
2023/02/07 08:11:38;;;;;;;33.33;24.10;;;;;;;;;;5069161;28;20025;-65
2023/02/07 08:14:04;;;;;;;33.53;24.30;;;;;;;;;;5068211;28;20009;-65
2023/02/07 08:16:30;;;;;;;34.25;26.15;;;;;;;;;;5069068;28;20400;-65
2023/02/07 08:18:56;;;;;;;34.35;23.20;;;;;;;;;;5061286;28;20017;-65
2023/02/07 08:21:25;;;;;;;33.55;24.92;;;;;;;;;;5052397;28;20070;-66
2023/02/07 08:23:51;;;;;;;31.20;25.90;;;;;;;;;;5051888;28;20075;-66
2023/02/07 08:26:17;;;;;;;30.95;24.45;;;;;;;;;;5052670;28;20033;-66
2023/02/07 08:28:43;;;;;;;35.95;24.90;;;;;;;;;;5035751;28;20021;-63
2023/02/07 08:31:11;;;;;;;32.28;24.00;;;;;;;;;;5053906;28;20021;-64
2023/02/07 08:33:37;;;;;;;31.17;23.67;;;;;;;;;;5053313;28;20110;-64
2023/02/07 08:36:07;;;;;;;27.20;21.83;;;;;;;;;;5053903;28;20460;-64
2023/02/07 08:38:33;;;;;;;29.30;22.05;;;;;;;;;;5034960;28;20021;-61
2023/02/07 08:40:59;;;;;;;30.50;21.60;;;;;;;;;;5052429;28;20059;-62
2023/02/07 08:43:25;;;;;;;29.02;22.70;;;;;;;;;;5051586;28;20321;-62
2023/02/07 08:45:52;;;;;;;29.35;22.42;;;;;;;;;;5065441;28;20036;-63
2023/02/07 08:48:18;;;;;;;29.35;20.95;;;;;;;;;;5071594;28;20135;-61
2023/02/07 08:50:44;;;;;;;29.73;21.10;;;;;;;;;;5054071;28;20114;-62
2023/02/07 08:53:10;;;;;;;29.98;22.00;;;;;;;;;;5071251;28;20017;-57
2023/02/07 08:55:36;;;;;;;29.73;21.55;;;;;;;;;;5072123;28;20095;-58
2023/02/07 08:58:02;;;;;;;26.85;20.77;;;;;;;;;;5063196;28;20028;-60
2023/02/07 09:00:28;;;;;;;26.48;20.55;;;;;;;;;;5070405;28;20089;-59
2023/02/07 09:02:54;;;;;;;29.38;22.08;;;;;;;;;;5056627;28;20113;-56
2023/02/07 09:05:21;;;;;;;24.85;19.33;;;;;;;;;;5042124;28;20430;-59
2023/02/07 09:07:46;;;;;;;26.58;19.45;;;;;;;;;;5071690;28;20109;-58
2023/02/07 09:10:14;;;;;;;24.40;19.17;;;;;;;;;;5069336;28;20113;-55
2023/02/07 09:12:40;;;;;;;27.00;20.02;;;;;;;;;;5071521;28;20027;-60
2023/02/07 09:15:06;;;;;;;28.92;19.92;;;;;;;;;;5069807;28;20021;-60
2023/02/07 09:17:32;;;;;;;27.65;20.17;;;;;;;;;;5051759;28;20021;-60
2023/02/07 09:19:59;;;;;;;31.60;20.30;;;;;;;;;;5051658;28;20017;-65
2023/02/07 09:22:25;;;;;;;26.35;19.58;;;;;;;;;;5068212;28;20025;-66
2023/02/07 09:24:51;;;;;;;26.95;19.42;;;;;;;;;;5030061;28;20170;-66
2023/02/07 09:27:17;;;;;;;26.40;20.20;;;;;;;;;;5049596;28;20033;-64
2023/02/07 09:29:43;;;;;;;27.02;18.63;;;;;;;;;;5034571;28;20408;-65
2023/02/07 09:32:09;;;;;;;25.40;18.75;;;;;;;;;;5050532;28;20093;-66
2023/02/07 09:34:35;;;;;;;25.48;19.02;;;;;;;;;;5039800;28;20029;-65
2023/02/07 09:37:01;;;;;;;27.55;19.38;;;;;;;;;;5032954;28;20021;-66
2023/02/07 09:39:27;;;;;;;24.77;18.50;;;;;;;;;;5032723;28;20067;-66
2023/02/07 09:42:12;;;;;;;32.03;21.25;;;;;;;;;;5033146;28;20445;-65
2023/02/07 09:44:38;;;;;;;24.23;18.58;;;;;;;;;;5032343;28;20040;-66
2023/02/07 09:47:10;;;;;;;26.83;18.58;;;;;;;;;;5032989;28;20080;-66
2023/02/07 09:49:39;;;;;;;23.27;16.63;;;;;;;;;;5051471;28;20441;-66
2023/02/07 09:52:06;;;;;;;25.10;18.40;;;;;;;;;;5069430;28;20024;-65
2023/02/07 09:54:38;;;;;;;25.85;18.38;;;;;;;;;;5052106;28;20031;-66
2023/02/07 09:57:07;;;;;;;25.75;17.30;;;;;;;;;;5052819;28;20025;-66
2023/02/07 09:59:36;;;;;;;25.48;17.25;;;;;;;;;;5052815;28;20025;-65
2023/02/07 10:02:05;;;;;;;26.73;16.63;;;;;;;;;;5052889;28;20028;-65
2023/02/07 10:04:31;;;;;;;;;;;;;;;;;;5035904;28;20029;-64
2023/02/07 10:06:59;;;;;;;26.42;16.98;;;;;;;;;;5052165;28;19905;-64
2023/02/07 10:09:29;;;;;;;26.70;18.10;;;;;;;;;;5070626;28;20028;-64
2023/02/07 10:11:58;;;;;;;25.42;16.58;;;;;;;;;;5070524;28;20484;-64
2023/02/07 10:14:51;;;;;;;25.08;17.10;;;;;;;;;;5051781;28;20021;-63
2023/02/07 10:17:20;;;;;;;27.92;17.10;;;;;;;;;;5011819;28;20029;-64
2023/02/07 10:19:49;;;;;;;28.65;17.60;;;;;;;;;;5050470;28;20366;-63
2023/02/07 10:22:30;;;;;;;28.20;17.48;;;;;;;;;;5032891;28;20417;-64
2023/02/07 10:25:11;;;;;;;22.45;15.32;;;;;;;;;;5031643;28;20374;-62
2023/02/07 10:27:50;;;;;;;23.95;16.33;;;;;;;;;;5033310;28;20032;-63
2023/02/07 10:30:31;;;;;;;24.42;16.90;;;;;;;;;;5033799;28;20500;-62
2023/02/07 10:33:20;;;;;;;25.63;15.38;;;;;;;;;;5032490;28;20091;-63
2023/02/07 10:35:47;;;;;;;22.73;14.75;;;;;;;;;;5024536;28;20508;-65
2023/02/07 10:38:29;;;;;;;24.85;16.20;;;;;;;;;;5032486;28;20101;-64
2023/02/07 10:40:59;;;;;;;24.48;15.68;;;;;;;;;;5032329;28;20021;-64
2023/02/07 10:43:31;;;;;;;27.45;16.33;;;;;;;;;;5031312;28;20057;-64
2023/02/07 10:46:19;;;;;;;26.65;16.80;;;;;;;;;;5032078;28;20108;-64
2023/02/07 10:48:45;;;;;;;23.20;15.13;;;;;;;;;;5050030;28;20031;-64
2023/02/07 10:51:30;;;;;;;23.42;15.00;;;;;;;;;;5032099;28;20029;-64
2023/02/07 10:54:10;;;;;;;24.13;15.40;;;;;;;;;;5048258;28;20474;-64
2023/02/07 10:56:40;;;;;;;21.55;13.20;;;;;;;;;;5070092;28;20392;-63
2023/02/07 10:59:26;;;;;;;23.42;13.05;;;;;;;;;;5052082;28;20032;-64
2023/02/07 11:01:53;;;;;;;21.65;13.48;;;;;;;;;;5052100;28;20074;-64
2023/02/07 11:04:24;;;;;;;22.02;13.07;;;;;;;;;;5050145;28;20052;-63
2023/02/07 11:06:59;;;;;;;22.48;12.50;;;;;;;;;;5069489;28;20039;-63
2023/02/07 11:09:26;;;;;;;26.52;14.90;;;;;;;;;;5070197;28;20025;-64
2023/02/07 11:11:53;;;;;;;24.75;14.60;;;;;;;;;;5070078;28;20028;-63
2023/02/07 11:14:25;;;;;;;23.65;14.30;;;;;;;;;;5063159;28;20229;-63
2023/02/07 11:16:55;;;;;;;29.85;15.35;;;;;;;;;;5059429;28;20381;-63
2023/02/07 11:19:23;;;;;;;26.05;12.73;;;;;;;;;;5040842;28;20081;-64
2023/02/07 11:21:50;;;;;;;19.25;12.85;;;;;;;;;;5054942;28;20473;-63
2023/02/07 11:24:16;;;;;;;19.17;12.20;;;;;;;;;;5049432;28;20025;-63
2023/02/07 11:26:54;;;;;;;19.67;12.60;;;;;;;;;;5049661;28;20032;-64
2023/02/07 11:29:21;;;;;;;21.02;12.65;;;;;;;;;;5049957;28;20017;-64
2023/02/07 11:31:47;;;;;;;19.60;14.00;;;;;;;;;;5050529;28;20032;-64
2023/02/07 11:34:32;;;;;;;22.48;14.27;;;;;;;;;;5047841;28;20033;-64
2023/02/07 11:37:09;;;;;;;19.92;13.50;;;;;;;;;;5059361;28;20063;-61
2023/02/07 11:39:35;;;;;;;21.48;13.90;;;;;;;;;;5041861;28;20075;-64
2023/02/07 11:42:02;;;;;;;21.77;15.18;;;;;;;;;;5061432;28;20166;-63
2023/02/07 11:44:29;;;;;;;32.38;18.02;;;;;;;;;;5040201;28;20025;-64
2023/02/07 11:46:58;;;;;;;29.90;14.90;;;;;;;;;;5058396;28;20021;-64
2023/02/07 11:49:47;;;;;;;20.58;14.73;;;;;;;;;;5040955;28;20033;-64
2023/02/07 11:52:13;;;;;;;18.02;13.20;;;;;;;;;;5026802;28;20029;-64
2023/02/07 11:54:41;;;;;;;18.90;14.15;;;;;;;;;;5056621;28;20025;-64
2023/02/07 11:57:16;;;;;;;19.48;14.68;;;;;;;;;;5058359;28;20029;-63
2023/02/07 11:59:49;;;;;;;19.80;14.73;;;;;;;;;;5058149;28;20368;-64
2023/02/07 12:02:21;;;;;;;20.58;14.18;;;;;;;;;;5058971;28;20430;-63
2023/02/07 12:04:47;;;;;;;21.33;15.88;;;;;;;;;;5075721;28;20059;-62
2023/02/07 12:07:24;;;;;;;22.90;15.90;;;;;;;;;;5058376;28;20071;-64
2023/02/07 12:09:55;;;;;;;21.30;15.15;;;;;;;;;;5055287;28;20025;-63
2023/02/07 12:12:43;;;;;;;23.58;15.38;;;;;;;;;;5073706;28;20025;-63
2023/02/07 12:15:09;;;;;;;23.63;15.15;;;;;;;;;;5052828;28;20016;-64
2023/02/07 12:17:39;;;;;;;18.60;14.25;;;;;;;;;;5055158;28;20021;-64
2023/02/07 12:20:20;;;;;;;25.40;15.02;;;;;;;;;;5056224;28;20104;-63
2023/02/07 12:22:56;;;;;;;20.00;13.70;;;;;;;;;;5053552;28;20096;-64
2023/02/07 12:27:55;;;;;;;19.42;14.13;;;;;;;;;;5049344;22;20041;-62
2023/02/07 12:30:32;;;;;;;19.08;13.85;;;;;;;;;;5016360;28;20030;-60
2023/02/07 12:33:03;;;;;;;18.55;12.98;;;;;;;;;;5015972;28;20037;-63
2023/02/07 12:35:29;;;;;;;19.08;12.73;;;;;;;;;;5016422;28;20565;-62
2023/02/07 12:38:00;;;;;;;17.05;12.75;;;;;;;;;;5016572;28;20474;-62
2023/02/07 12:40:44;;;;;;;19.10;12.73;;;;;;;;;;5033805;28;20057;-63
2023/02/07 12:43:13;;;;;;;20.30;13.77;;;;;;;;;;5031360;28;20030;-62
2023/02/07 12:45:50;;;;;;;21.75;14.02;;;;;;;;;;5015501;28;20474;-64
2023/02/07 12:48:34;;;;;;;23.17;14.38;;;;;;;;;;5015400;28;20029;-61
2023/02/07 12:51:11;;;;;;;19.20;13.68;;;;;;;;;;5015390;28;20397;-62
2023/02/07 12:53:40;;;;;;;19.92;13.68;;;;;;;;;;5031406;28;20087;-63
2023/02/07 12:56:25;;;;;;;24.70;14.23;;;;;;;;;;5015556;28;20083;-59
2023/02/07 12:59:09;;;;;;;20.25;14.20;;;;;;;;;;5033453;28;20049;-63
2023/02/07 13:01:39;;;;;;;23.67;14.98;;;;;;;;;;5016014;28;20029;-62
2023/02/07 13:04:17;;;;;;;25.42;14.82;;;;;;;;;;5015047;28;20025;-61
2023/02/07 13:06:51;;;;;;;23.92;13.98;;;;;;;;;;5032537;28;20029;-64
2023/02/07 13:09:35;;;;;;;20.05;13.98;;;;;;;;;;5033129;28;20042;-61
2023/02/07 13:12:12;;;;;;;22.30;13.73;;;;;;;;;;5015563;28;20025;-61
2023/02/07 13:14:47;;;;;;;19.95;13.75;;;;;;;;;;5014897;28;20018;-61
2023/02/07 13:17:25;;;;;;;18.52;14.18;;;;;;;;;;5032859;28;20484;-60
2023/02/07 13:20:02;;;;;;;21.02;14.27;;;;;;;;;;5014159;28;20415;-59
2023/02/07 13:22:34;;;;;;;33.90;15.77;;;;;;;;;;5033191;28;20030;-60
2023/02/07 13:25:01;;;;;;;21.92;14.50;;;;;;;;;;5014315;28;20037;-61
2023/02/07 13:27:28;;;;;;;22.98;14.23;;;;;;;;;;5032483;28;20068;-60
2023/02/07 13:29:54;;;;;;;20.23;14.82;;;;;;;;;;5014719;28;20025;-65
2023/02/07 13:32:24;;;;;;;18.80;13.50;;;;;;;;;;5014100;28;20061;-64
2023/02/07 13:34:50;;;;;;;22.70;14.32;;;;;;;;;;5014092;28;20496;-63
2023/02/07 13:37:17;;;;;;;21.40;13.70;;;;;;;;;;5014569;28;20021;-63
2023/02/07 13:39:46;;;;;;;23.67;14.10;;;;;;;;;;5014622;28;20240;-67
2023/02/07 13:42:12;;;;;;;25.13;14.77;;;;;;;;;;5014827;28;20033;-65
2023/02/07 13:44:57;;;;;;;23.15;13.70;;;;;;;;;;5030637;28;20113;-65
2023/02/07 13:47:23;;;;;;;18.92;13.35;;;;;;;;;;5014449;28;20033;-65
2023/02/07 13:49:53;;;;;;;22.17;14.88;;;;;;;;;;5032367;28;20030;-65
2023/02/07 13:52:22;;;;;;;21.42;13.52;;;;;;;;;;5014474;28;20033;-67
2023/02/07 13:54:52;;;;;;;23.30;13.88;;;;;;;;;;5030896;28;20187;-66
2023/02/07 14:00:27;;;;;;;21.23;14.10;;;;;;;;;;5032541;28;20094;-67
2023/02/07 14:03:02;;;;;;;19.08;14.00;;;;;;;;;;5032000;28;20029;-67
2023/02/07 14:05:42;;;;;;;30.60;17.77;;;;;;;;;;5031913;28;20029;-64
2023/02/07 14:08:17;;;;;;;21.63;14.35;;;;;;;;;;5027040;28;20048;-67
2023/02/07 14:10:47;;;;;;;21.13;13.75;;;;;;;;;;5009541;28;20033;-67
2023/02/07 14:13:40;;;;;;;18.02;13.23;;;;;;;;;;5012747;28;20068;-67
2023/02/07 14:16:06;;;;;;;21.60;14.45;;;;;;;;;;5010877;28;20057;-67
2023/02/07 14:18:39;;;;;;;21.55;14.52;;;;;;;;;;5010256;28;20030;-70
2023/02/07 14:21:05;;;;;;;21.52;14.88;;;;;;;;;;5006160;28;20024;-67
2023/02/07 14:23:50;;;;;;;18.67;14.13;;;;;;;;;;5010753;28;20033;-66
2023/02/07 14:26:35;;;;;;;19.90;14.57;;;;;;;;;;5024327;28;20065;-68
2023/02/07 14:29:21;;;;;;;18.70;13.98;;;;;;;;;;5026130;28;20478;-68
2023/02/07 14:31:55;;;;;;;21.52;15.50;;;;;;;;;;5011996;28;20029;-69
2023/02/07 14:34:25;;;;;;;21.48;14.65;;;;;;;;;;5013188;28;20028;-69